Time;durP1;ratioP1;P1;durP2;ratioP2;P2;SDS_P1;SDS_P2;PMS_P1;PMS_P2;Temp;Humidity;BMP_temperature;BMP_pressure;BME280_temperature;BME280_humidity;BME280_pressure;Samples;Min_cycle;Max_cycle;Signal;HPM_P1;HPM_P2
2023/05/28 00:01:07;;;;;;;26.00;1.53;;;;;;;24.25;41.53;99928.56;7313924;19;129082;-32
2023/05/28 00:03:32;;;;;;;25.13;1.67;;;;;;;24.24;41.21;99937.44;7314719;19;130429;-30
2023/05/28 00:05:58;;;;;;;41.07;2.33;;;;;;;24.23;41.56;99933.13;7313778;19;128946;-34
2023/05/28 00:08:25;;;;;;;21.38;1.40;;;;;;;24.25;40.81;99933.00;7315267;19;128834;-33
2023/05/28 00:10:51;;;;;;;35.15;2.20;;;;;;;24.20;41.64;99930.81;7313138;19;131032;-30
2023/05/28 00:13:17;;;;;;;25.77;1.60;;;;;;;24.21;41.68;99924.56;7313335;19;130236;-31
2023/05/28 00:15:44;;;;;;;39.77;2.37;;;;;;;24.08;40.62;99900.47;7313050;19;128939;-30
2023/05/28 00:18:11;;;;;;;31.25;1.88;;;;;;;24.20;40.85;99922.94;7314331;19;129040;-29
2023/05/28 00:20:37;;;;;;;23.23;1.48;;;;;;;24.17;41.32;99912.72;7310989;19;130257;-35
2023/05/28 00:23:03;;;;;;;11.02;0.93;;;;;;;24.25;41.10;99918.06;7310607;19;129108;-31
2023/05/28 00:25:28;;;;;;;43.83;2.53;;;;;;;24.32;41.30;99920.91;7312345;19;128986;-34
2023/05/28 00:27:53;;;;;;;22.23;1.60;;;;;;;24.19;41.49;99908.16;7313563;19;128765;-31
2023/05/28 00:30:19;;;;;;;19.20;1.42;;;;;;;24.24;41.16;99920.84;7313023;19;130130;-30
2023/05/28 00:32:45;;;;;;;11.88;1.00;;;;;;;24.27;41.44;99917.91;7310278;19;129644;-33
2023/05/28 00:35:10;;;;;;;36.97;2.13;;;;;;;24.28;41.16;99920.38;7312759;19;128824;-40
2023/05/28 00:37:35;;;;;;;12.83;0.87;;;;;;;24.26;41.43;99914.44;7313444;19;129106;-32
2023/05/28 00:40:02;;;;;;;32.30;1.97;;;;;;;24.22;41.53;99910.47;7310441;19;129377;-30
2023/05/28 00:42:27;;;;;;;38.60;2.17;;;;;;;24.20;41.00;99909.78;7311088;19;130715;-31
2023/05/28 00:44:52;;;;;;;36.73;2.30;;;;;;;24.22;41.52;99913.09;7312581;19;128862;-38
2023/05/28 00:47:18;;;;;;;23.93;1.40;;;;;;;24.22;41.24;99910.47;7313169;19;128785;-31
2023/05/28 00:49:43;;;;;;;19.83;1.40;;;;;;;24.27;40.80;99910.03;7312543;19;129522;-36
2023/05/28 00:52:10;;;;;;;38.15;2.25;;;;;;;24.27;40.81;99910.03;7311227;19;130348;-35
2023/05/28 00:54:35;;;;;;;29.65;1.95;;;;;;;24.26;41.05;99898.69;7312418;19;129540;-38
2023/05/28 00:57:01;;;;;;;21.10;1.30;;;;;;;24.24;40.86;99899.81;7312747;19;129039;-32
2023/05/28 00:59:27;;;;;;;4.13;0.63;;;;;;;24.33;41.35;99907.63;7311072;19;130045;-33
2023/05/28 01:01:53;;;;;;;37.85;2.35;;;;;;;24.26;41.38;99893.44;7310720;19;129608;-31
2023/05/28 01:04:21;;;;;;;23.08;1.48;;;;;;;24.27;41.46;99900.34;7313017;19;129484;-30
2023/05/28 01:06:48;;;;;;;20.60;1.40;;;;;;;24.22;40.85;99899.97;7313012;19;129186;-33
2023/05/28 01:09:13;;;;;;;25.65;1.60;;;;;;;24.26;40.80;99900.50;7313541;19;129473;-41
2023/05/28 01:11:42;;;;;;;22.70;1.37;;;;;;;24.21;40.89;99882.53;7318277;19;129637;-34
2023/05/28 01:14:08;;;;;;;35.25;2.08;;;;;;;24.27;40.64;99881.97;7319815;19;129537;-32
2023/05/28 01:16:34;;;;;;;19.92;1.25;;;;;;;24.28;40.93;99880.13;7319569;19;129902;-38
2023/05/28 01:19:08;;;;;;;22.00;1.48;;;;;;;24.28;41.10;99883.59;7318406;19;130582;-33
2023/05/28 01:21:37;;;;;;;35.67;2.22;;;;;;;24.14;40.89;99872.78;7316831;19;130424;-33
2023/05/28 01:24:03;;;;;;;61.08;3.60;;;;;;;24.22;40.93;99886.84;7318379;19;129226;-30
2023/05/28 01:26:29;;;;;;;21.53;1.43;;;;;;;24.26;41.26;99882.91;7319448;19;129058;-35
2023/05/28 01:28:56;;;;;;;;;;;;;;;24.23;41.51;99888.47;7319279;19;128892;-35
2023/05/28 01:31:21;;;;;;;29.42;1.77;;;;;;;24.13;40.72;99871.16;7318051;19;129639;-33
2023/05/28 01:33:47;;;;;;;38.63;2.27;;;;;;;24.18;41.44;99874.97;7319229;19;129202;-37
2023/05/28 01:36:19;;;;;;;31.42;1.88;;;;;;;24.11;41.24;99871.28;7318413;19;128954;-35
2023/05/28 01:38:47;;;;;;;23.35;1.45;;;;;;;24.23;40.85;99891.09;7318052;19;130344;-40
2023/05/28 01:41:14;;;;;;;29.17;1.80;;;;;;;24.21;41.25;99890.41;7316854;19;129212;-31
2023/05/28 01:43:41;;;;;;;42.63;2.33;;;;;;;24.20;41.22;99878.25;7318410;19;128900;-37
2023/05/28 01:46:06;;;;;;;;;;;;;;;24.25;41.14;99889.16;7319270;19;129146;-28
2023/05/28 01:48:33;;;;;;;39.38;2.30;;;;;;;24.21;40.75;99882.53;7317768;19;129106;-32
2023/05/28 01:50:59;;;;;;;41.13;2.35;;;;;;;24.18;41.08;99869.69;7316890;19;129178;-36
2023/05/28 01:53:24;;;;;;;41.07;2.53;;;;;;;24.26;41.24;99882.09;7318503;19;128856;-30
2023/05/28 01:55:50;;;;;;;22.10;1.43;;;;;;;24.27;40.79;99878.50;7317656;19;130257;-34
2023/05/28 01:58:16;;;;;;;20.27;1.33;;;;;;;24.25;41.36;99873.38;7317993;19;130541;-33
2023/05/28 02:00:59;;;;;;;26.27;1.57;;;;;;;24.26;40.81;99882.91;7315581;19;131370;-35
2023/05/28 02:03:24;;;;;;;43.47;2.40;;;;;;;24.26;41.18;99877.66;7317103;19;128929;-31
2023/05/28 02:05:50;;;;;;;35.63;2.07;;;;;;;24.25;41.20;99870.75;7317315;19;129343;-34
2023/05/28 02:08:15;;;;;;;21.87;1.33;;;;;;;24.30;40.91;99881.66;7317452;19;129435;-39
2023/05/28 02:10:42;;;;;;;23.60;1.48;;;;;;;24.27;40.73;99868.81;7316959;19;129065;-34
2023/05/28 02:13:07;;;;;;;40.55;2.35;;;;;;;24.26;40.90;99869.78;7317923;19;129532;-31
2023/05/28 02:15:32;;;;;;;23.63;1.57;;;;;;;24.26;41.34;99875.03;7317229;19;129300;-34
2023/05/28 02:17:58;;;;;;;27.98;1.77;;;;;;;24.26;41.21;99869.78;7316930;19;129035;-35
2023/05/28 02:20:23;;;;;;;22.70;1.47;;;;;;;24.27;41.45;99871.44;7314355;19;129292;-29
2023/05/28 02:22:48;;;;;;;41.10;2.33;;;;;;;24.21;40.93;99843.13;7315655;19;130008;-31
2023/05/28 02:25:15;;;;;;;21.98;1.38;;;;;;;24.25;40.97;99870.75;7316913;19;128893;-40
2023/05/28 02:27:40;;;;;;;5.38;0.75;;;;;;;24.25;41.31;99865.50;7316738;19;131065;-34
2023/05/28 02:30:06;;;;;;;21.13;1.40;;;;;;;24.28;40.88;99864.38;7317466;19;130253;-33
2023/05/28 02:32:32;;;;;;;44.30;2.67;;;;;;;24.28;40.79;99856.47;7314763;19;129652;-32
2023/05/28 02:34:57;;;;;;;21.20;1.33;;;;;;;24.13;41.22;99835.16;7316557;19;128967;-31
2023/05/28 02:37:23;;;;;;;23.97;1.60;;;;;;;24.27;41.58;99855.69;7317058;19;129771;-33
2023/05/28 02:39:50;;;;;;;31.23;1.90;;;;;;;24.28;40.83;99859.13;7316025;19;131033;-34
2023/05/28 02:42:15;;;;;;;33.30;1.92;;;;;;;24.28;40.73;99854.69;7315464;19;129080;-37
2023/05/28 02:44:41;;;;;;;31.65;2.15;;;;;;;24.28;41.17;99852.06;7316479;19;129267;-33
2023/05/28 02:47:06;;;;;;;27.63;1.80;;;;;;;24.23;41.53;99851.69;7316412;19;129162;-32
2023/05/28 02:49:31;;;;;;;26.77;1.63;;;;;;;24.21;41.24;99853.63;7316687;19;129190;-31
2023/05/28 02:51:57;;;;;;;15.00;1.20;;;;;;;24.23;41.25;99856.94;7315366;19;129088;-37
2023/05/28 02:54:22;;;;;;;30.20;1.93;;;;;;;24.27;41.51;99855.69;7316479;19;129294;-31
2023/05/28 02:56:48;;;;;;;30.70;1.80;;;;;;;24.17;41.06;99835.69;7316220;19;130541;-33
2023/05/28 02:59:13;;;;;;;52.57;3.10;;;;;;;24.24;41.58;99853.34;7315671;19;129569;-30
2023/05/28 03:01:38;;;;;;;36.28;2.28;;;;;;;24.24;41.21;99849.91;7315853;19;129681;-35
2023/05/28 03:04:04;;;;;;;32.60;2.10;;;;;;;24.23;40.83;99838.56;7315937;19;128597;-30
2023/05/28 03:06:30;;;;;;;10.30;0.83;;;;;;;24.29;41.43;99845.03;7315104;19;131051;-37
2023/05/28 03:08:55;;;;;;;35.95;2.08;;;;;;;24.25;41.37;99849.75;7315495;19;130395;-33
2023/05/28 03:11:21;;;;;;;27.67;1.60;;;;;;;24.21;41.25;99845.75;7316061;19;130240;-32
2023/05/28 03:13:46;;;;;;;25.92;1.83;;;;;;;24.23;41.20;99846.44;7316224;19;129241;-32
2023/05/28 03:16:11;;;;;;;18.30;1.35;;;;;;;24.25;41.36;99855.00;7315482;19;130090;-32
2023/05/28 03:18:37;;;;;;;37.13;2.27;;;;;;;24.26;41.07;99853.22;7315901;19;129141;-31
2023/05/28 03:21:02;;;;;;;23.88;1.45;;;;;;;24.19;40.86;99834.59;7314119;19;129219;-35
2023/05/28 03:23:28;;;;;;;23.37;1.57;;;;;;;24.28;40.66;99859.13;7315226;19;129004;-38
2023/05/28 03:25:53;;;;;;;30.00;1.83;;;;;;;24.18;41.41;99838.19;7314834;19;129219;-35
2023/05/28 03:28:18;;;;;;;34.25;2.03;;;;;;;24.31;41.42;99864.09;7316185;19;130891;-36
2023/05/28 03:30:44;;;;;;;23.57;1.57;;;;;;;24.29;41.05;99856.38;7315768;19;128907;-38
2023/05/28 03:33:10;;;;;;;2.57;0.60;;;;;;;24.29;41.29;99861.63;7313481;19;128657;-38
2023/05/28 03:35:35;;;;;;;10.50;0.95;;;;;;;24.19;41.02;99849.53;7314744;19;130838;-34
2023/05/28 03:38:01;;;;;;;43.95;2.50;;;;;;;24.28;41.20;99862.56;7315736;19;129661;-30
2023/05/28 03:40:26;;;;;;;25.33;1.63;;;;;;;24.21;40.66;99848.38;7314248;19;129356;-30
2023/05/28 03:42:51;;;;;;;0.28;0.28;;;;;;;24.25;41.68;99862.03;7312962;19;128904;-31
2023/05/28 03:45:17;;;;;;;39.42;2.22;;;;;;;24.14;41.20;99842.09;7314431;19;130095;-35
2023/05/28 03:47:42;;;;;;;26.93;1.63;;;;;;;24.22;41.12;99852.69;7316157;19;129694;-31
2023/05/28 03:50:08;;;;;;;21.13;1.43;;;;;;;24.19;41.38;99849.53;7315529;19;129334;-32
2023/05/28 03:52:33;;;;;;;22.98;1.48;;;;;;;24.28;41.19;99856.47;7312382;19;128994;-31
2023/05/28 03:54:58;;;;;;;55.28;3.10;;;;;;;24.23;41.36;99856.94;7314416;19;129291;-34
2023/05/28 03:57:24;;;;;;;21.87;1.57;;;;;;;24.21;41.45;99853.63;7315290;19;129184;-33
2023/05/28 03:59:49;;;;;;;29.85;1.77;;;;;;;24.26;41.49;99856.63;7313985;19;128904;-36
2023/05/28 04:02:14;;;;;;;25.90;1.65;;;;;;;24.27;40.83;99849.59;7312586;19;129535;-32
2023/05/28 04:04:40;;;;;;;38.10;2.17;;;;;;;24.29;41.40;99855.53;7313475;19;129298;-35
2023/05/28 04:07:05;;;;;;;7.53;0.80;;;;;;;24.25;41.22;99855.00;7311551;19;130514;-37
2023/05/28 04:09:31;;;;;;;24.45;1.58;;;;;;;24.25;41.45;99854.16;7314566;19;129141;-29
2023/05/28 04:11:56;;;;;;;26.60;1.73;;;;;;;24.26;41.53;99846.13;7313071;19;128952;-34
2023/05/28 04:14:21;;;;;;;22.80;1.70;;;;;;;24.31;41.62;99854.38;7313535;19;129619;-39
2023/05/28 04:16:48;;;;;;;26.87;1.83;;;;;;;24.29;41.42;99855.53;7314250;19;129149;-33
2023/05/28 04:19:13;;;;;;;19.20;1.30;;;;;;;24.27;41.11;99858.31;7314394;19;130498;-28
2023/05/28 04:21:38;;;;;;;32.43;1.93;;;;;;;24.28;41.14;99854.69;7312021;19;129004;-29
2023/05/28 04:24:04;;;;;;;49.93;2.93;;;;;;;24.26;41.50;99858.47;7314280;19;130171;-34
2023/05/28 04:26:29;;;;;;;22.40;1.43;;;;;;;24.28;40.96;99848.59;7313426;19;130834;-29
2023/05/28 04:28:55;;;;;;;21.97;1.47;;;;;;;24.28;41.12;99851.22;7313539;19;128996;-32
2023/05/28 04:31:20;;;;;;;44.10;2.47;;;;;;;24.28;41.42;99854.69;7311800;19;129079;-33
2023/05/28 04:33:48;;;;;;;24.35;1.50;;;;;;;24.25;41.48;99855.00;7313326;19;130189;-38
2023/05/28 04:36:14;;;;;;;22.75;1.45;;;;;;;24.29;41.02;99851.09;7312695;19;129694;-38
2023/05/28 04:38:41;;;;;;;23.03;1.53;;;;;;;24.27;41.47;99852.22;7313272;19;128753;-30
2023/05/28 04:41:06;;;;;;;;;;;;;;;24.25;41.18;99849.75;7311115;19;129059;-36
2023/05/28 04:43:33;;;;;;;28.63;1.73;;;;;;;24.25;41.19;99849.75;7315934;19;130799;-35
2023/05/28 04:45:58;;;;;;;34.17;2.15;;;;;;;24.19;41.34;99850.34;7318767;19;129299;-30
2023/05/28 04:48:25;;;;;;;19.67;1.30;;;;;;;24.28;41.49;99840.72;7319565;19;129389;-31
2023/05/28 04:50:51;;;;;;;67.80;3.53;;;;;;;24.29;40.62;99845.84;7318452;19;129157;-40
2023/05/28 04:53:16;;;;;;;18.53;1.33;;;;;;;24.23;40.97;99846.44;7319612;19;129757;-36
2023/05/28 04:55:42;;;;;;;12.45;0.82;;;;;;;24.18;40.86;99826.88;7318201;19;129719;-34
2023/05/28 04:58:07;;;;;;;23.08;1.42;;;;;;;24.24;40.93;99845.47;7319480;19;129079;-36
2023/05/28 05:00:34;;;;;;;54.20;3.00;;;;;;;24.31;41.21;99845.69;7317866;19;129573;-36
2023/05/28 05:03:00;;;;;;;23.58;1.60;;;;;;;24.28;40.81;99846.81;7317614;19;129423;-30
2023/05/28 05:05:25;;;;;;;23.73;1.60;;;;;;;24.25;41.12;99838.41;7318430;19;129610;-33
2023/05/28 05:07:51;;;;;;;22.73;1.57;;;;;;;24.23;40.93;99838.56;7319143;19;128845;-30
2023/05/28 05:10:17;;;;;;;44.88;2.65;;;;;;;24.22;41.34;99836.06;7319482;19;129304;-35
2023/05/28 05:12:42;;;;;;;19.80;1.27;;;;;;;24.27;40.78;99839.91;7317437;19;129456;-33
2023/05/28 05:15:08;;;;;;;25.93;1.53;;;;;;;24.23;40.89;99841.19;7317925;19;129545;-33
2023/05/28 05:17:34;;;;;;;25.83;1.53;;;;;;;24.26;41.46;99840.06;7319016;19;128815;-40
2023/05/28 05:20:01;;;;;;;37.60;2.30;;;;;;;24.22;40.75;99836.91;7318994;19;129452;-32
2023/05/28 05:22:26;;;;;;;23.90;1.45;;;;;;;24.16;40.89;99819.09;7317613;19;131245;-32
2023/05/28 05:24:52;;;;;;;22.47;1.50;;;;;;;24.28;40.78;99838.94;7318147;19;130319;-34
2023/05/28 05:27:17;;;;;;;29.50;1.70;;;;;;;24.28;41.36;99841.56;7318369;19;129030;-28
2023/05/28 05:29:43;;;;;;;35.63;2.27;;;;;;;24.25;41.10;99833.97;7319072;19;129981;-29
2023/05/28 05:32:11;;;;;;;6.20;0.60;;;;;;;24.27;41.14;99841.72;7317194;19;129016;-33
2023/05/28 05:34:37;;;;;;;25.42;1.58;;;;;;;24.29;41.36;99839.75;7317488;19;129233;-35
2023/05/28 05:37:02;;;;;;;34.30;2.17;;;;;;;24.30;41.11;99841.41;7318835;19;129282;-33
2023/05/28 05:39:28;;;;;;;31.73;1.83;;;;;;;24.17;41.47;99827.81;7318403;19;129123;-39
2023/05/28 05:41:54;;;;;;;27.15;1.70;;;;;;;24.28;40.93;99838.94;7316647;19;130231;-37
2023/05/28 05:44:19;;;;;;;28.50;1.70;;;;;;;24.18;40.88;99830.28;7317435;19;131288;-33
2023/05/28 05:46:45;;;;;;;37.25;2.20;;;;;;;24.26;40.72;99848.75;7318900;19;128913;-36
2023/05/28 05:49:10;;;;;;;26.30;1.60;;;;;;;24.23;41.61;99841.19;7319107;19;128933;-38
2023/05/28 05:51:36;;;;;;;43.45;2.40;;;;;;;24.25;41.48;99841.03;7317669;19;128963;-32
2023/05/28 05:54:04;;;;;;;38.37;2.63;;;;;;;24.28;41.00;99838.94;7318063;19;129691;-34
2023/05/28 05:56:29;;;;;;;60.45;3.28;;;;;;;24.27;41.04;99839.06;7314697;19;129275;-38
2023/05/28 05:58:56;;;;;;;27.77;1.63;;;;;;;24.25;41.14;99839.22;7317598;19;128735;-40
2023/05/28 06:01:22;;;;;;;19.58;1.42;;;;;;;24.26;41.37;99846.13;7315422;19;129099;-34
2023/05/28 06:03:47;;;;;;;39.53;2.47;;;;;;;24.26;40.79;99838.25;7316875;19;129285;-34
2023/05/28 06:06:13;;;;;;;38.95;2.33;;;;;;;24.27;41.40;99839.91;7317291;19;128778;-32
2023/05/28 06:08:39;;;;;;;23.33;1.33;;;;;;;24.25;41.31;99838.41;7317780;19;128870;-32
2023/05/28 06:11:04;;;;;;;26.90;1.57;;;;;;;24.27;40.79;99844.34;7316362;19;131048;-32
2023/05/28 06:13:30;;;;;;;27.20;1.70;;;;;;;24.26;41.15;99840.06;7317399;19;129988;-33
2023/05/28 06:15:55;;;;;;;41.87;2.57;;;;;;;24.27;40.87;99832.03;7316845;19;129207;-36
2023/05/28 06:18:21;;;;;;;20.80;1.37;;;;;;;24.26;41.07;99835.63;7318061;19;128871;-31
2023/05/28 06:20:49;;;;;;;29.13;1.77;;;;;;;24.30;41.29;99831.72;7315292;19;130770;-31
2023/05/28 06:23:14;;;;;;;24.15;1.50;;;;;;;24.28;40.74;99831.03;7317054;19;130480;-34
2023/05/28 06:25:40;;;;;;;44.33;2.53;;;;;;;24.27;40.94;99831.19;7315846;19;129475;-32
2023/05/28 06:28:05;;;;;;;23.38;1.55;;;;;;;24.29;41.50;99832.72;7317349;19;128933;-34
2023/05/28 06:30:30;;;;;;;19.27;1.37;;;;;;;24.27;41.42;99821.53;7317335;19;129499;-32
2023/05/28 06:32:56;;;;;;;26.00;1.60;;;;;;;24.23;41.17;99830.66;7314057;19;129390;-37
2023/05/28 06:35:21;;;;;;;31.00;1.73;;;;;;;24.30;41.40;99829.09;7316754;19;129268;-33
2023/05/28 06:37:47;;;;;;;21.55;1.45;;;;;;;24.27;41.16;99829.41;7317385;19;129515;-31
2023/05/28 06:40:12;;;;;;;22.52;1.45;;;;;;;24.23;41.17;99825.41;7315221;19;129083;-40
2023/05/28 06:42:40;;;;;;;40.38;2.28;;;;;;;24.25;40.90;99828.72;7313566;19;130367;-30
2023/05/28 06:45:07;;;;;;;11.50;0.90;;;;;;;24.25;41.38;99828.72;7316001;19;128797;-32
2023/05/28 06:47:32;;;;;;;;;;;;;;;24.19;41.29;99816.19;7317655;19;128960;-35
2023/05/28 06:49:58;;;;;;;24.17;1.55;;;;;;;24.28;41.13;99833.66;7315995;19;129905;-34
2023/05/28 06:52:24;;;;;;;52.90;2.77;;;;;;;24.28;40.69;99828.41;7314968;19;130015;-32
2023/05/28 06:54:50;;;;;;;35.10;2.03;;;;;;;24.26;40.83;99819.84;7316049;19;128897;-37
2023/05/28 06:57:15;;;;;;;34.00;1.92;;;;;;;24.28;41.61;99820.53;7316952;19;129352;-32
2023/05/28 06:59:41;;;;;;;1.73;0.43;;;;;;;24.26;40.81;99819.84;7315816;19;129461;-36
2023/05/28 07:02:06;;;;;;;33.90;2.00;;;;;;;24.28;40.96;99823.16;7314273;19;129739;-31
2023/05/28 07:04:32;;;;;;;23.30;1.45;;;;;;;24.29;40.89;99818.75;7316005;19;129322;-34
2023/05/28 07:06:57;;;;;;;24.55;1.50;;;;;;;24.21;41.56;99821.31;7313564;19;129027;-33
2023/05/28 07:09:23;;;;;;;20.77;1.37;;;;;;;24.19;41.39;99807.47;7315900;19;129411;-38
2023/05/28 07:11:48;;;;;;;20.63;1.30;;;;;;;24.28;41.32;99817.91;7313825;19;130178;-31
2023/05/28 07:14:13;;;;;;;28.43;1.80;;;;;;;24.31;41.14;99820.22;7316159;19;128962;-32
2023/05/28 07:16:39;;;;;;;19.97;1.30;;;;;;;24.26;41.08;99819.84;7316094;19;129824;-31
2023/05/28 07:19:05;;;;;;;19.40;1.27;;;;;;;24.32;41.16;99821.06;7315702;19;129455;-27
2023/05/28 07:21:32;;;;;;;40.00;2.20;;;;;;;24.25;41.44;99818.22;7313233;19;131092;-34
2023/05/28 07:23:57;;;;;;;51.85;3.33;;;;;;;24.26;41.06;99824.31;7315287;19;128677;-39
2023/05/28 07:26:23;;;;;;;2.90;0.40;;;;;;;24.26;41.26;99814.59;7315725;19;129604;-31
2023/05/28 07:28:48;;;;;;;29.97;1.73;;;;;;;24.27;41.45;99815.44;7315357;19;129401;-33
2023/05/28 07:31:13;;;;;;;43.40;2.50;;;;;;;24.23;40.83;99809.66;7315719;19;129437;-32
2023/05/28 07:33:39;;;;;;;20.40;1.25;;;;;;;24.23;40.84;99809.66;7316051;19;129013;-31
2023/05/28 07:36:04;;;;;;;13.47;1.03;;;;;;;24.28;41.04;99820.53;7314556;19;129110;-34
2023/05/28 07:38:30;;;;;;;28.67;1.73;;;;;;;24.29;41.40;99810.84;7315932;19;130254;-40
2023/05/28 07:40:55;;;;;;;26.93;1.60;;;;;;;24.25;40.96;99818.22;7313856;19;130596;-36
2023/05/28 07:43:20;;;;;;;20.73;1.35;;;;;;;24.24;41.48;99816.56;7316025;19;129003;-34
2023/05/28 07:45:46;;;;;;;32.03;1.90;;;;;;;24.28;40.80;99812.66;7314629;19;129576;-27
2023/05/28 07:48:11;;;;;;;32.15;1.92;;;;;;;24.28;40.71;99814.44;7314565;19;129104;-32
2023/05/28 07:50:38;;;;;;;29.83;1.63;;;;;;;24.27;40.97;99815.44;7315139;19;129200;-34
2023/05/28 07:53:04;;;;;;;39.75;2.30;;;;;;;24.30;41.31;99815.97;7312562;19;128887;-32
2023/05/28 07:55:29;;;;;;;27.53;1.70;;;;;;;24.32;41.03;99811.38;7313913;19;128844;-29
2023/05/28 07:57:55;;;;;;;36.93;2.07;;;;;;;24.28;41.40;99812.66;7314800;19;129387;-29
2023/05/28 08:00:20;;;;;;;10.17;0.90;;;;;;;24.29;41.49;99811.69;7314634;19;129713;-32
2023/05/28 08:02:45;;;;;;;21.00;1.30;;;;;;;24.27;41.09;99813.63;7313124;19;129373;-33
2023/05/28 08:05:11;;;;;;;5.03;0.60;;;;;;;24.23;40.84;99809.66;7312097;19;129724;-38
2023/05/28 08:07:36;;;;;;;43.72;2.35;;;;;;;24.28;41.03;99817.06;7315145;19;131504;-32
2023/05/28 08:10:03;;;;;;;30.97;1.93;;;;;;;24.24;40.73;99813.94;7314141;19;129692;-31
2023/05/28 08:12:28;;;;;;;23.17;1.40;;;;;;;24.26;40.84;99808.53;7311394;19;128968;-32
2023/05/28 08:14:54;;;;;;;20.17;1.27;;;;;;;24.26;40.72;99809.34;7313125;19;129586;-35
2023/05/28 08:17:22;;;;;;;37.67;2.07;;;;;;;24.20;41.17;99793.34;7313921;19;129556;-38
2023/05/28 08:19:47;;;;;;;23.23;1.48;;;;;;;24.27;41.12;99810.19;7314373;19;129714;-31
2023/05/28 08:22:13;;;;;;;25.33;1.60;;;;;;;24.26;41.11;99809.34;7311224;19;128889;-29
2023/05/28 08:24:38;;;;;;;27.97;1.70;;;;;;;24.29;41.15;99806.44;7313218;19;130409;-33
2023/05/28 08:27:04;;;;;;;38.47;2.10;;;;;;;24.20;41.00;99802.06;7313774;19;129431;-32
2023/05/28 08:29:29;;;;;;;21.20;1.40;;;;;;;24.28;41.12;99811.81;7314589;19;129403;-33
2023/05/28 08:31:57;;;;;;;21.67;1.37;;;;;;;24.25;40.80;99801.63;7311805;19;128869;-32
2023/05/28 08:34:23;;;;;;;29.23;1.67;;;;;;;24.27;41.06;99804.91;7312440;19;129901;-32
2023/05/28 08:36:48;;;;;;;36.33;2.03;;;;;;;24.25;40.74;99801.63;7313508;19;130149;-33
2023/05/28 08:39:13;;;;;;;27.40;1.63;;;;;;;24.26;41.07;99798.84;7313261;19;129215;-27
2023/05/28 08:41:39;;;;;;;21.00;1.23;;;;;;;24.28;41.67;99803.94;7310992;19;129255;-32
2023/05/28 08:44:04;;;;;;;39.37;2.27;;;;;;;24.23;41.09;99799.13;7312071;19;129388;-39
2023/05/28 08:46:30;;;;;;;30.40;1.70;;;;;;;24.30;41.27;99805.44;7312948;19;129405;-33
2023/05/28 08:48:57;;;;;;;30.60;1.77;;;;;;;24.31;41.35;99807.09;7313127;19;130254;-34
2023/05/28 08:51:24;;;;;;;;;;;;;;;24.26;41.11;99804.09;7312738;19;128842;-33
2023/05/28 08:53:51;;;;;;;85.38;4.82;;;;;;;24.27;41.09;99803.13;7311902;19;129785;-29
2023/05/28 08:56:17;;;;;;;33.83;2.08;;;;;;;24.28;41.43;99796.03;7312170;19;128955;-37
2023/05/28 08:58:44;;;;;;;21.35;1.35;;;;;;;24.29;41.02;99789.84;7313237;19;131303;-34
2023/05/28 09:01:09;;;;;;;;;;;;;;;24.26;41.47;99796.19;7311516;19;129023;-34
2023/05/28 09:03:39;;;;;;;37.50;2.07;;;;;;;24.26;41.39;99793.56;7313087;19;129536;-37
2023/05/28 09:06:04;;;;;;;35.58;1.90;;;;;;;24.26;41.63;99793.56;7312252;19;130990;-34
2023/05/28 09:08:30;;;;;;;25.37;1.57;;;;;;;24.23;41.44;99788.63;7311333;19;130315;-33
2023/05/28 09:10:56;;;;;;;10.40;0.80;;;;;;;24.27;41.37;99794.41;7312420;19;129857;-35
2023/05/28 09:13:23;;;;;;;38.22;2.15;;;;;;;24.26;41.06;99787.53;7311584;19;128897;-34
2023/05/28 09:15:52;;;;;;;7.20;0.60;;;;;;;24.25;41.05;99794.56;7311828;19;130120;-31
2023/05/28 09:18:21;;;;;;;26.35;1.52;;;;;;;24.31;40.68;99790.50;7311758;19;129254;-39
2023/05/28 09:20:50;;;;;;;11.43;0.82;;;;;;;24.27;41.21;99784.72;7310494;19;129074;-33
2023/05/28 09:23:17;;;;;;;28.85;1.70;;;;;;;24.30;41.03;99783.59;7312331;19;129005;-39
2023/05/28 09:25:44;;;;;;;35.20;1.95;;;;;;;24.26;40.95;99788.31;7311381;19;129974;-32
2023/05/28 09:28:12;;;;;;;24.80;1.50;;;;;;;24.26;40.74;99783.06;7312607;19;130346;-32
2023/05/28 09:30:37;;;;;;;22.50;1.30;;;;;;;24.25;41.21;99778.81;7315426;19;128848;-30
2023/05/28 09:33:04;;;;;;;22.77;1.43;;;;;;;24.23;40.85;99783.38;7316967;19;129022;-33
2023/05/28 09:35:30;;;;;;;42.88;2.53;;;;;;;24.15;40.73;99758.84;7317154;19;129589;-35
2023/05/28 09:38:03;;;;;;;20.80;1.17;;;;;;;24.27;41.45;99779.47;7318824;19;130349;-40
2023/05/28 09:40:29;;;;;;;23.48;1.38;;;;;;;24.25;41.08;99775.34;7318333;19;129024;-31
2023/05/28 09:42:54;;;;;;;8.73;0.70;;;;;;;24.23;41.57;99778.13;7315871;19;128935;-33
2023/05/28 09:45:25;;;;;;;37.00;2.10;;;;;;;24.23;41.07;99779.91;7317520;19;130841;-37
2023/05/28 09:47:50;;;;;;;33.35;1.98;;;;;;;24.26;40.80;99780.44;7318139;19;130481;-36
2023/05/28 09:50:16;;;;;;;21.27;1.23;;;;;;;24.20;41.53;99760.03;7318756;19;129718;-31
2023/05/28 09:52:44;;;;;;;35.50;1.93;;;;;;;24.26;40.71;99777.81;7316646;19;128805;-34
2023/05/28 09:55:13;;;;;;;38.97;2.20;;;;;;;24.30;40.64;99773.91;7317256;19;130189;-30
2023/05/28 09:57:45;;;;;;;28.52;1.58;;;;;;;24.27;40.73;99776.03;7318292;19;130451;-38
2023/05/28 10:00:22;;;;;;;23.73;1.33;;;;;;;24.26;41.07;99780.44;7317819;19;129355;-35
2023/05/28 10:02:55;;;;;;;4.80;0.30;;;;;;;24.27;41.37;99776.84;7315504;19;129690;-32
2023/05/28 10:05:22;;;;;;;21.10;1.25;;;;;;;24.16;40.74;99753.44;7317001;19;130179;-34
2023/05/28 10:07:53;;;;;;;35.20;1.92;;;;;;;24.29;41.22;99774.06;7317874;19;129611;-35
2023/05/28 10:10:20;;;;;;;27.25;1.48;;;;;;;24.29;41.32;99767.03;7317983;19;130516;-35
2023/05/28 10:12:46;;;;;;;22.25;1.38;;;;;;;24.25;41.15;99767.47;7315917;19;129141;-36
2023/05/28 10:15:13;;;;;;;54.72;3.00;;;;;;;24.23;41.09;99754.47;7316150;19;130104;-33
2023/05/28 10:17:39;;;;;;;18.83;1.20;;;;;;;24.25;41.15;99760.41;7317498;19;129615;-29
2023/05/28 10:20:10;;;;;;;33.60;1.83;;;;;;;24.19;41.35;99745.25;7318442;19;128878;-35
2023/05/28 10:22:37;;;;;;;22.58;1.33;;;;;;;24.30;41.03;99758.16;7315846;19;128996;-40
2023/05/28 10:25:03;;;;;;;;;;;;;;;24.24;41.52;99752.69;7317138;19;129650;-32
2023/05/28 10:27:32;;;;;;;23.20;1.45;;;;;;;24.22;41.38;99752.84;7316239;19;130271;-31
2023/05/28 10:29:57;;;;;;;49.65;2.70;;;;;;;24.27;41.21;99753.19;7317163;19;129629;-38
2023/05/28 10:32:23;;;;;;;0.27;0.27;;;;;;;24.27;40.73;99753.19;7315728;19;130510;-32
2023/05/28 10:34:48;;;;;;;22.83;1.40;;;;;;;24.24;41.45;99753.53;7316068;19;129062;-35
2023/05/28 10:37:22;;;;;;;27.07;1.53;;;;;;;24.27;41.30;99747.13;7316716;19;130234;-31
2023/05/28 10:39:48;;;;;;;44.58;2.38;;;;;;;24.23;41.43;99757.09;7316191;19;128742;-36
2023/05/28 10:42:15;;;;;;;23.77;1.40;;;;;;;24.25;41.51;99744.66;7313970;19;128817;-33
2023/05/28 10:44:59;;;;;;;23.48;1.35;;;;;;;24.23;41.07;99751.84;7315413;19;129297;-35
2023/05/28 10:47:31;;;;;;;21.38;1.27;;;;;;;24.28;41.06;99746.97;7315999;19;129485;-33
2023/05/28 10:50:13;;;;;;;14.63;0.98;;;;;;;24.23;40.90;99749.22;7315884;19;129036;-33
2023/05/28 10:52:39;;;;;;;26.23;1.50;;;;;;;24.26;41.20;99756.78;7314835;19;129435;-34
2023/05/28 10:55:13;;;;;;;39.90;2.17;;;;;;;24.26;40.84;99754.16;7316092;19;129395;-34
2023/05/28 10:57:45;;;;;;;24.02;1.33;;;;;;;24.29;41.00;99758.31;7315483;19;132222;-36
2023/05/28 11:00:15;;;;;;;22.73;1.40;;;;;;;24.27;41.12;99750.56;7316276;19;128783;-37
2023/05/28 11:02:45;;;;;;;22.42;1.30;;;;;;;24.29;41.37;99756.50;7313031;19;129631;-34
2023/05/28 11:05:10;;;;;;;30.00;1.65;;;;;;;24.26;40.82;99748.09;7314579;19;129373;-30
2023/05/28 11:07:41;;;;;;;35.90;2.00;;;;;;;24.24;41.67;99747.44;7315615;19;129486;-32
2023/05/28 11:10:14;;;;;;;19.23;1.23;;;;;;;24.24;41.51;99750.06;7316891;19;129519;-29
2023/05/28 11:12:41;;;;;;;21.33;1.27;;;;;;;24.26;41.10;99745.47;7313305;19;129992;-32
2023/05/28 11:15:12;;;;;;;5.30;0.47;;;;;;;24.27;40.69;99745.31;7314875;19;130132;-34